This is the latest recevied weather packets stored in our database for station/object EA3ANS-1. If no packets are shown the sender has not sent any weather packets the latest 10 day(s).
| Time | Temp. | Humidity | Pressure | Rain* | Wind** | Luminosity | Snow |
|---|---|---|---|---|---|---|---|
| 1787730368 | 23.33° C | - | 1011.6 hPa | 0 mm | 2.68 m/s, 70° | - | - |
| 1787729770 | 22.22° C | - | 1012.9 hPa | 0 mm | 4.92 m/s, 338° | - | - |
| 1787729173 | 23.33° C | - | 1012.3 hPa | 0 mm | 3.13 m/s, 307° | - | - |
| 1787728575 | 22.78° C | - | 1012.1 hPa | 0 mm | 1.34 m/s, 13° | - | - |
| 1787727976 | 22.22° C | - | 1012.2 hPa | 0 mm | 3.58 m/s, 300° | - | - |
| 1787727370 | 22.22° C | - | 1012.3 hPa | 0 mm | 3.58 m/s, 349° | - | - |
| 1787726773 | 22.78° C | - | 1011.8 hPa | 0 mm | 1.34 m/s, 73° | - | - |
| 1787726175 | 22.22° C | - | 1012.3 hPa | 0 mm | 2.68 m/s, 107° | - | - |
| 1787725577 | 21.67° C | - | 1013.9 hPa | 0 mm | 2.68 m/s, 318° | - | - |
| 1787724980 | 21.67° C | - | 1014.1 hPa | 0 mm | 1.34 m/s, 305° | - | - |
| 1787724382 | 21.67° C | - | 1013.8 hPa | 0 mm | 2.24 m/s, 359° | - | - |
| 1787723785 | 21.11° C | - | 1014 hPa | 0 mm | 2.24 m/s, 325° | - | - |
| 1787723173 | 21.11° C | - | 1013.3 hPa | 0 mm | 2.24 m/s, 359° | - | - |
| 1787722576 | 21.67° C | - | 1012.8 hPa | 0 mm | 1.34 m/s, 207° | - | - |
| 1787721974 | 21.67° C | - | 1013 hPa | 0 mm | 2.24 m/s, 280° | - | - |
| 1787721376 | 22.22° C | - | 1012.4 hPa | 0 mm | 1.34 m/s, 231° | - | - |
| 1787720779 | 22.22° C | - | 1012.4 hPa | 0 mm | 1.79 m/s, 97° | - | - |
| 1787720181 | 22.22° C | - | 1013.2 hPa | 0 mm | 0.89 m/s, 295° | - | - |
| 1787719583 | 21.67° C | - | 1012.2 hPa | 0 mm | 0.45 m/s, 328° | - | - |
| 1787718978 | 22.22° C | - | 1012.2 hPa | 0 mm | 0.45 m/s, 298° | - | - |
| 1787718380 | 21.11° C | - | 1012.7 hPa | 0 mm | 2.68 m/s, 323° | - | - |
| 1787717775 | 21.67° C | - | 1013 hPa | 0 mm | 2.68 m/s, 288° | - | - |
| 1787717178 | 22.22° C | - | 1013.1 hPa | 0 mm | 0 m/s | - | - |
| 1787716579 | 21.67° C | - | 1013.2 hPa | 0 mm | 0.89 m/s, 63° | - | - |
| 1787715976 | 22.22° C | - | 1013.8 hPa | 0 mm | 0 m/s | - | - |
* Rain latest hour (hover to see other rain measurements)
** Current wind speed in m/s (hover to see current wind gust speed)